createdAt,value
2023-04-11T00:00:59.344Z,96577.53
2023-04-11T00:05:51.055Z,96575.44
2023-04-11T00:10:44.282Z,96581.00
2023-04-11T00:15:39.218Z,96589.88
2023-04-11T00:20:30.895Z,96594.50
2023-04-11T00:25:22.593Z,96595.13
2023-04-11T00:30:14.403Z,96593.25
2023-04-11T00:35:08.515Z,96593.38
2023-04-11T00:40:00.171Z,96581.34
2023-04-11T00:44:51.840Z,96566.34
2023-04-11T00:49:43.919Z,96556.53
2023-04-11T00:54:35.762Z,96525.41
2023-04-11T00:59:30.310Z,96497.44
2023-04-11T01:04:22.089Z,96498.41
2023-04-11T01:09:14.228Z,96495.72
2023-04-11T01:14:06.620Z,96495.09
2023-04-11T01:18:58.332Z,96495.28
2023-04-11T01:29:06.752Z,96500.88
2023-04-11T01:45:13.008Z,96499.41
2023-04-11T01:50:06.877Z,96510.19
2023-04-11T01:54:58.584Z,96499.09
2023-04-11T01:59:50.412Z,96509.22
2023-04-11T02:04:42.112Z,96494.31
2023-04-11T02:09:33.770Z,96464.41
2023-04-11T02:14:25.515Z,96474.06
2023-04-11T02:19:17.241Z,96472.44
2023-04-11T02:24:08.930Z,96478.13
2023-04-11T02:29:00.629Z,96460.88
2023-04-11T02:33:52.287Z,96479.94
2023-04-11T02:38:44.000Z,96481.84
2023-04-11T02:43:35.963Z,96472.16
2023-04-11T02:48:27.673Z,96464.63
2023-04-11T02:53:19.353Z,96487.00
2023-04-11T02:58:11.028Z,96498.59
2023-04-11T03:03:03.084Z,96498.25
2023-04-11T03:07:57.578Z,96492.72
2023-04-11T03:12:49.252Z,96485.50
2023-04-11T03:17:40.953Z,96502.47
2023-04-11T03:22:32.677Z,96511.81
2023-04-11T03:27:24.388Z,96528.06
2023-04-11T03:32:16.098Z,96529.13
2023-04-11T03:37:07.881Z,96516.38
2023-04-11T03:41:59.675Z,96516.75
2023-04-11T03:46:51.369Z,96522.59
2023-04-11T03:51:43.278Z,96530.31
2023-04-11T03:56:34.972Z,96547.25
2023-04-11T04:01:28.933Z,96544.03
2023-04-11T04:06:21.397Z,96539.44
2023-04-11T04:11:13.074Z,96538.50
2023-04-11T04:16:05.168Z,96560.31
2023-04-11T04:20:56.927Z,96542.53
2023-04-11T04:25:51.257Z,96529.91
2023-04-11T04:30:42.924Z,96533.75
2023-04-11T04:35:34.638Z,96535.16
2023-04-11T04:40:27.317Z,96545.19
2023-04-11T04:45:19.099Z,96541.91
2023-04-11T04:50:11.083Z,96548.09
2023-04-11T04:55:03.813Z,96558.03
2023-04-11T04:59:57.545Z,96581.06
2023-04-11T05:04:50.400Z,96587.59
2023-04-11T05:09:42.431Z,96586.41
2023-04-11T05:14:34.303Z,96586.91
2023-04-11T05:19:26.103Z,96601.81
2023-04-11T05:24:17.778Z,96589.84
2023-04-11T05:29:11.260Z,96585.50
2023-04-11T05:34:03.340Z,96578.13
2023-04-11T05:38:55.306Z,96575.50
2023-04-11T05:43:50.832Z,96577.06
2023-04-11T05:53:50.504Z,96581.41
2023-04-11T05:58:45.730Z,96575.84
2023-04-11T06:09:00.682Z,96582.22
2023-04-11T06:13:52.338Z,96576.88
2023-04-11T06:23:50.058Z,96573.66
2023-04-11T06:28:42.771Z,96596.13
2023-04-11T06:33:35.206Z,96600.09
2023-04-11T06:38:26.938Z,96591.78
2023-04-11T06:43:18.734Z,96597.28
2023-04-11T06:48:19.027Z,96597.72
2023-04-11T06:53:18.361Z,96609.34
2023-04-11T07:03:23.690Z,96679.44
2023-04-11T07:08:16.045Z,96704.75
2023-04-11T07:13:08.175Z,96701.13
2023-04-11T07:18:00.649Z,96708.22
2023-04-11T07:23:00.338Z,96704.38
2023-04-11T07:27:53.413Z,96727.00
2023-04-11T07:32:46.335Z,96731.25
2023-04-11T07:37:38.366Z,96731.50
2023-04-11T07:42:30.179Z,96744.06
2023-04-11T07:47:22.037Z,96766.38
2023-04-11T07:52:15.361Z,96751.69
2023-04-11T07:57:07.598Z,96748.06
2023-04-11T08:02:01.718Z,96757.38
2023-04-11T08:07:03.191Z,96736.16
2023-04-11T08:11:58.531Z,96737.50
2023-04-11T08:16:52.813Z,96743.00
2023-04-11T08:21:44.838Z,96755.94
2023-04-11T08:26:36.731Z,96758.34
2023-04-11T08:31:28.792Z,96774.38
2023-04-11T08:36:22.450Z,96801.59
2023-04-11T08:46:20.572Z,96809.66
2023-04-11T08:51:14.629Z,96816.59
2023-04-11T09:01:32.797Z,96823.22
2023-04-11T09:11:37.958Z,96814.97
2023-04-11T09:16:29.833Z,96816.28
2023-04-11T09:21:22.167Z,96819.63
2023-04-11T09:26:29.859Z,96807.66
2023-04-11T09:31:40.666Z,96814.44
2023-04-11T09:36:32.461Z,96824.44
2023-04-11T09:41:36.376Z,96821.44
2023-04-11T09:46:30.977Z,96817.41
2023-04-11T09:51:35.684Z,96822.13
2023-04-11T09:56:31.712Z,96827.53
2023-04-11T10:01:24.786Z,96822.59
2023-04-11T10:06:43.591Z,96814.06
2023-04-11T10:11:40.624Z,96819.16
2023-04-11T10:21:42.850Z,96826.91
2023-04-11T10:32:21.513Z,96833.88
2023-04-11T10:37:16.539Z,96856.97
2023-04-11T10:42:32.076Z,96839.84
2023-04-11T10:47:26.498Z,96844.91
2023-04-11T10:52:25.035Z,96829.41
2023-04-11T10:57:20.387Z,96810.56
2023-04-11T11:07:24.476Z,96834.00
2023-04-11T11:12:17.719Z,96824.94
2023-04-11T11:17:13.357Z,96837.34
2023-04-11T11:27:25.402Z,96838.22
2023-04-11T11:32:30.381Z,96848.06
2023-04-11T11:37:31.539Z,96837.84
2023-04-11T11:47:45.358Z,96848.59
2023-04-11T11:57:54.184Z,96854.31
2023-04-11T12:02:47.353Z,96849.78
2023-04-11T12:12:53.684Z,96864.16
2023-04-11T12:17:56.675Z,96838.44
2023-04-11T12:22:48.381Z,96845.41
2023-04-11T12:32:51.723Z,96845.47
2023-04-11T12:37:54.461Z,96838.19
2023-04-11T12:42:56.322Z,96841.50
2023-04-11T12:47:49.394Z,96833.69
2023-04-11T12:52:43.842Z,96849.88
2023-04-11T12:57:38.613Z,96837.47
2023-04-11T13:07:44.315Z,96840.88
2023-04-11T13:12:41.538Z,96846.53
2023-04-11T13:17:35.732Z,96838.31
2023-04-11T13:27:35.217Z,96835.22
2023-04-11T13:32:32.356Z,96829.88
2023-04-11T13:37:30.790Z,96822.03
2023-04-11T13:42:23.024Z,96836.44
2023-04-11T13:47:14.903Z,96821.28
2023-04-11T13:52:07.258Z,96819.78
2023-04-11T14:02:08.535Z,96801.97
2023-04-11T14:07:01.062Z,96811.38
2023-04-11T14:12:01.253Z,96809.88
2023-04-11T14:21:59.779Z,96802.66
2023-04-11T14:42:17.143Z,96802.25
2023-04-11T14:47:09.052Z,96799.59
2023-04-11T14:52:01.414Z,96796.19
2023-04-11T15:02:01.200Z,96788.41
2023-04-11T15:06:54.448Z,96779.22
2023-04-11T15:11:51.210Z,96771.53
2023-04-11T15:16:42.899Z,96765.81
2023-04-11T15:21:34.645Z,96752.97
2023-04-11T15:26:27.180Z,96743.75
2023-04-11T15:31:27.637Z,96746.44
2023-04-11T15:36:19.683Z,96735.75
2023-04-11T15:41:13.092Z,96742.41
2023-04-11T15:46:06.720Z,96738.78
2023-04-11T15:51:00.138Z,96737.94
2023-04-11T15:55:53.213Z,96731.19
2023-04-11T16:05:53.428Z,96732.47
2023-04-11T16:10:45.252Z,96717.88
2023-04-11T16:15:37.034Z,96732.41
2023-04-11T16:20:28.971Z,96726.34
2023-04-11T16:25:21.800Z,96720.22
2023-04-11T16:30:14.297Z,96716.53
2023-04-11T16:35:07.045Z,96707.69
2023-04-11T16:39:58.888Z,96710.56
2023-04-11T16:44:50.769Z,96706.59
2023-04-11T16:49:44.360Z,96700.25
2023-04-11T16:59:46.454Z,96696.56
2023-04-11T17:04:39.568Z,96693.13
2023-04-11T17:09:36.106Z,96696.63
2023-04-11T17:14:29.165Z,96703.53
2023-04-11T17:19:20.985Z,96692.59
2023-04-11T17:24:13.008Z,96682.03
2023-04-11T17:29:06.508Z,96687.13
2023-04-11T17:33:58.632Z,96678.78
2023-04-11T17:38:54.132Z,96674.34
2023-04-11T17:43:48.083Z,96669.22
2023-04-11T17:48:39.859Z,96690.31
2023-04-11T17:53:31.772Z,96687.84
2023-04-11T17:58:23.747Z,96682.94
2023-04-11T18:03:17.132Z,96691.25
2023-04-11T18:08:09.780Z,96675.19
2023-04-11T18:13:05.261Z,96678.59
2023-04-11T18:17:57.389Z,96673.22
2023-04-11T18:22:54.530Z,96677.47
2023-04-11T18:27:47.541Z,96666.94
2023-04-11T18:32:44.611Z,96674.47
2023-04-11T18:37:40.445Z,96680.84
2023-04-11T18:42:32.428Z,96676.34
2023-04-11T18:47:24.329Z,96671.56
2023-04-11T18:52:16.661Z,96673.47
2023-04-11T18:57:10.287Z,96673.38
2023-04-11T19:07:10.477Z,96676.06
2023-04-11T19:12:02.158Z,96687.09
2023-04-11T19:16:53.933Z,96679.75
2023-04-11T19:21:46.586Z,96691.47
2023-04-11T19:26:38.438Z,96685.34
2023-04-11T19:31:34.137Z,96677.81
2023-04-11T19:36:26.569Z,96669.25
2023-04-11T19:41:19.549Z,96661.22
2023-04-11T19:46:12.926Z,96663.03
2023-04-11T19:51:04.981Z,96652.16
2023-04-11T19:55:56.842Z,96652.72
2023-04-11T20:00:48.661Z,96644.44
2023-04-11T20:05:44.282Z,96645.50
2023-04-11T20:10:37.325Z,96642.75
2023-04-11T20:15:31.336Z,96636.78
2023-04-11T20:20:27.730Z,96626.75
2023-04-11T20:25:19.564Z,96625.56
2023-04-11T20:30:12.457Z,96624.56
2023-04-11T20:35:05.024Z,96620.50
2023-04-11T20:39:58.350Z,96613.03
2023-04-11T20:44:51.051Z,96607.53
2023-04-11T20:49:45.497Z,96591.69
2023-04-11T20:54:37.300Z,96592.81
2023-04-11T20:59:29.787Z,96589.78
2023-04-11T21:04:21.920Z,96581.44
2023-04-11T21:09:13.917Z,96572.13
2023-04-11T21:14:05.878Z,96567.25
2023-04-11T21:18:57.593Z,96568.63
2023-04-11T21:23:49.299Z,96568.16
2023-04-11T21:28:40.964Z,96565.28
2023-04-11T21:33:32.684Z,96560.59
2023-04-11T21:38:24.529Z,96555.94
2023-04-11T21:43:16.287Z,96567.13
2023-04-11T21:48:08.185Z,96553.84
2023-04-11T21:52:59.957Z,96550.72
2023-04-11T21:57:51.656Z,96553.00
2023-04-11T22:13:00.575Z,96538.16
2023-04-11T22:17:56.170Z,96537.78
2023-04-11T22:22:48.006Z,96527.19
2023-04-11T22:27:39.752Z,96531.59
2023-04-11T22:32:31.591Z,96525.78
2023-04-11T22:37:23.347Z,96520.41
2023-04-11T22:42:15.188Z,96513.28
2023-04-11T22:52:24.050Z,96505.47
2023-04-11T22:57:16.135Z,96499.97
2023-04-11T23:12:36.402Z,96483.13
2023-04-11T23:22:35.344Z,96478.69
2023-04-11T23:27:27.745Z,96458.44
